sensor_id;sensor_type;location;lat;lon;timestamp;P1;durP1;ratioP1;P2;durP2;ratioP2
62202;SDS011;48199;49.138;7.414;2023-12-14T00:02:09;17.67;;;9.27;;
62202;SDS011;48199;49.138;7.414;2023-12-14T00:04:34;19.87;;;9.93;;
62202;SDS011;48199;49.138;7.414;2023-12-14T00:06:59;16.90;;;9.30;;
62202;SDS011;48199;49.138;7.414;2023-12-14T00:09:25;18.67;;;10.05;;
62202;SDS011;48199;49.138;7.414;2023-12-14T00:11:50;18.17;;;10.07;;
62202;SDS011;48199;49.138;7.414;2023-12-14T00:14:15;14.27;;;10.00;;
62202;SDS011;48199;49.138;7.414;2023-12-14T00:16:40;16.23;;;10.15;;
62202;SDS011;48199;49.138;7.414;2023-12-14T00:19:06;15.48;;;10.35;;
62202;SDS011;48199;49.138;7.414;2023-12-14T00:21:31;11.82;;;8.05;;
62202;SDS011;48199;49.138;7.414;2023-12-14T00:23:56;13.90;;;8.87;;
62202;SDS011;48199;49.138;7.414;2023-12-14T00:26:21;12.68;;;9.25;;
62202;SDS011;48199;49.138;7.414;2023-12-14T00:28:47;13.60;;;8.93;;
62202;SDS011;48199;49.138;7.414;2023-12-14T00:31:12;11.60;;;7.57;;
62202;SDS011;48199;49.138;7.414;2023-12-14T00:33:37;11.18;;;7.28;;
62202;SDS011;48199;49.138;7.414;2023-12-14T00:36:02;8.37;;;5.87;;
62202;SDS011;48199;49.138;7.414;2023-12-14T00:38:28;8.73;;;6.85;;
62202;SDS011;48199;49.138;7.414;2023-12-14T00:40:53;12.27;;;7.30;;
62202;SDS011;48199;49.138;7.414;2023-12-14T00:43:18;11.07;;;6.95;;
62202;SDS011;48199;49.138;7.414;2023-12-14T00:45:43;8.88;;;6.57;;
62202;SDS011;48199;49.138;7.414;2023-12-14T00:48:09;8.67;;;6.30;;
62202;SDS011;48199;49.138;7.414;2023-12-14T00:50:34;10.60;;;7.13;;
62202;SDS011;48199;49.138;7.414;2023-12-14T00:52:59;9.50;;;6.60;;
62202;SDS011;48199;49.138;7.414;2023-12-14T00:55:24;9.37;;;6.70;;
62202;SDS011;48199;49.138;7.414;2023-12-14T00:57:49;12.07;;;6.90;;
62202;SDS011;48199;49.138;7.414;2023-12-14T01:00:15;8.97;;;5.87;;
62202;SDS011;48199;49.138;7.414;2023-12-14T01:02:40;13.13;;;7.47;;
62202;SDS011;48199;49.138;7.414;2023-12-14T01:05:05;10.00;;;6.87;;
62202;SDS011;48199;49.138;7.414;2023-12-14T01:07:31;10.27;;;6.95;;
62202;SDS011;48199;49.138;7.414;2023-12-14T01:09:56;12.52;;;7.47;;
62202;SDS011;48199;49.138;7.414;2023-12-14T01:12:21;14.70;;;6.43;;
62202;SDS011;48199;49.138;7.414;2023-12-14T01:14:46;12.33;;;6.77;;
62202;SDS011;48199;49.138;7.414;2023-12-14T01:17:11;9.63;;;6.67;;
62202;SDS011;48199;49.138;7.414;2023-12-14T01:19:39;13.00;;;7.50;;
62202;SDS011;48199;49.138;7.414;2023-12-14T01:22:04;9.70;;;6.57;;
62202;SDS011;48199;49.138;7.414;2023-12-14T01:24:29;10.15;;;6.30;;
62202;SDS011;48199;49.138;7.414;2023-12-14T01:26:55;8.60;;;6.30;;
62202;SDS011;48199;49.138;7.414;2023-12-14T01:29:20;10.20;;;6.53;;
62202;SDS011;48199;49.138;7.414;2023-12-14T01:31:45;8.20;;;6.10;;
62202;SDS011;48199;49.138;7.414;2023-12-14T01:34:10;10.80;;;6.27;;
62202;SDS011;48199;49.138;7.414;2023-12-14T01:36:37;11.82;;;7.05;;
62202;SDS011;48199;49.138;7.414;2023-12-14T01:39:02;8.82;;;5.72;;
62202;SDS011;48199;49.138;7.414;2023-12-14T01:41:28;10.90;;;7.07;;
62202;SDS011;48199;49.138;7.414;2023-12-14T01:43:53;14.03;;;7.23;;
62202;SDS011;48199;49.138;7.414;2023-12-14T01:46:18;12.17;;;6.40;;
62202;SDS011;48199;49.138;7.414;2023-12-14T01:48:43;9.77;;;6.72;;
62202;SDS011;48199;49.138;7.414;2023-12-14T01:51:08;9.37;;;6.20;;
62202;SDS011;48199;49.138;7.414;2023-12-14T01:53:34;11.55;;;6.82;;
62202;SDS011;48199;49.138;7.414;2023-12-14T01:55:59;11.37;;;6.93;;
62202;SDS011;48199;49.138;7.414;2023-12-14T01:58:24;8.67;;;6.53;;
62202;SDS011;48199;49.138;7.414;2023-12-14T02:03:26;8.73;;;6.25;;
62202;SDS011;48199;49.138;7.414;2023-12-14T02:05:51;8.43;;;6.07;;
62202;SDS011;48199;49.138;7.414;2023-12-14T02:08:17;8.03;;;6.03;;
62202;SDS011;48199;49.138;7.414;2023-12-14T02:10:42;7.97;;;5.72;;
62202;SDS011;48199;49.138;7.414;2023-12-14T02:13:07;9.50;;;5.82;;
62202;SDS011;48199;49.138;7.414;2023-12-14T02:15:32;9.77;;;5.77;;
62202;SDS011;48199;49.138;7.414;2023-12-14T02:17:58;8.35;;;5.80;;
62202;SDS011;48199;49.138;7.414;2023-12-14T02:20:23;7.53;;;5.18;;
62202;SDS011;48199;49.138;7.414;2023-12-14T02:22:49;11.90;;;5.30;;
62202;SDS011;48199;49.138;7.414;2023-12-14T02:25:15;9.43;;;5.40;;
62202;SDS011;48199;49.138;7.414;2023-12-14T02:27:40;7.47;;;5.10;;
62202;SDS011;48199;49.138;7.414;2023-12-14T02:30:05;7.78;;;4.78;;
62202;SDS011;48199;49.138;7.414;2023-12-14T02:32:31;8.60;;;5.47;;
62202;SDS011;48199;49.138;7.414;2023-12-14T02:34:56;8.00;;;5.60;;
62202;SDS011;48199;49.138;7.414;2023-12-14T02:37:21;8.00;;;5.20;;
62202;SDS011;48199;49.138;7.414;2023-12-14T02:39:47;7.20;;;4.93;;
62202;SDS011;48199;49.138;7.414;2023-12-14T02:42:12;9.10;;;5.70;;
62202;SDS011;48199;49.138;7.414;2023-12-14T02:44:37;7.22;;;4.97;;
62202;SDS011;48199;49.138;7.414;2023-12-14T02:47:02;9.57;;;5.87;;
62202;SDS011;48199;49.138;7.414;2023-12-14T02:49:28;8.50;;;5.15;;
62202;SDS011;48199;49.138;7.414;2023-12-14T02:51:53;10.23;;;6.00;;
62202;SDS011;48199;49.138;7.414;2023-12-14T02:54:18;7.93;;;4.73;;
62202;SDS011;48199;49.138;7.414;2023-12-14T02:56:43;9.75;;;5.63;;
62202;SDS011;48199;49.138;7.414;2023-12-14T02:59:08;7.27;;;4.97;;
62202;SDS011;48199;49.138;7.414;2023-12-14T03:01:34;8.77;;;5.33;;
62202;SDS011;48199;49.138;7.414;2023-12-14T03:03:59;10.33;;;5.93;;
62202;SDS011;48199;49.138;7.414;2023-12-14T03:06:24;9.27;;;5.77;;
62202;SDS011;48199;49.138;7.414;2023-12-14T03:08:49;8.53;;;5.43;;
62202;SDS011;48199;49.138;7.414;2023-12-14T03:11:21;8.33;;;5.30;;
62202;SDS011;48199;49.138;7.414;2023-12-14T03:13:47;7.13;;;5.00;;
62202;SDS011;48199;49.138;7.414;2023-12-14T03:16:12;7.40;;;4.70;;
62202;SDS011;48199;49.138;7.414;2023-12-14T03:18:37;9.00;;;5.60;;
62202;SDS011;48199;49.138;7.414;2023-12-14T03:21:03;7.83;;;5.47;;
62202;SDS011;48199;49.138;7.414;2023-12-14T03:23:28;9.70;;;5.50;;
62202;SDS011;48199;49.138;7.414;2023-12-14T03:25:53;9.93;;;5.80;;
62202;SDS011;48199;49.138;7.414;2023-12-14T03:28:18;10.00;;;4.80;;
62202;SDS011;48199;49.138;7.414;2023-12-14T03:30:44;14.50;;;6.03;;
62202;SDS011;48199;49.138;7.414;2023-12-14T03:33:09;9.37;;;6.00;;
62202;SDS011;48199;49.138;7.414;2023-12-14T03:35:34;8.07;;;5.25;;
62202;SDS011;48199;49.138;7.414;2023-12-14T03:38:01;10.95;;;5.50;;
62202;SDS011;48199;49.138;7.414;2023-12-14T03:40:26;8.65;;;5.30;;
62202;SDS011;48199;49.138;7.414;2023-12-14T03:42:51;9.67;;;5.80;;
62202;SDS011;48199;49.138;7.414;2023-12-14T03:45:16;8.17;;;5.67;;
62202;SDS011;48199;49.138;7.414;2023-12-14T03:47:41;8.83;;;5.70;;
62202;SDS011;48199;49.138;7.414;2023-12-14T03:50:07;7.63;;;5.07;;
62202;SDS011;48199;49.138;7.414;2023-12-14T03:52:32;9.65;;;5.43;;
62202;SDS011;48199;49.138;7.414;2023-12-14T03:54:57;9.33;;;5.60;;
62202;SDS011;48199;49.138;7.414;2023-12-14T03:57:22;8.43;;;5.57;;
62202;SDS011;48199;49.138;7.414;2023-12-14T03:59:48;7.63;;;4.88;;
62202;SDS011;48199;49.138;7.414;2023-12-14T04:02:13;12.20;;;6.80;;
62202;SDS011;48199;49.138;7.414;2023-12-14T04:04:38;9.57;;;6.23;;
62202;SDS011;48199;49.138;7.414;2023-12-14T04:07:04;9.65;;;6.55;;
62202;SDS011;48199;49.138;7.414;2023-12-14T04:09:29;8.70;;;5.80;;
62202;SDS011;48199;49.138;7.414;2023-12-14T04:11:54;9.40;;;5.88;;
62202;SDS011;48199;49.138;7.414;2023-12-14T04:14:19;8.17;;;5.70;;
62202;SDS011;48199;49.138;7.414;2023-12-14T04:16:45;17.58;;;6.00;;
62202;SDS011;48199;49.138;7.414;2023-12-14T04:19:10;8.32;;;5.65;;
62202;SDS011;48199;49.138;7.414;2023-12-14T04:21:36;7.80;;;5.28;;
62202;SDS011;48199;49.138;7.414;2023-12-14T04:24:01;12.07;;;7.10;;
62202;SDS011;48199;49.138;7.414;2023-12-14T04:26:26;12.40;;;6.20;;
62202;SDS011;48199;49.138;7.414;2023-12-14T04:28:53;7.78;;;5.68;;
62202;SDS011;48199;49.138;7.414;2023-12-14T04:31:18;8.67;;;5.60;;
62202;SDS011;48199;49.138;7.414;2023-12-14T04:33:43;11.48;;;6.35;;
62202;SDS011;48199;49.138;7.414;2023-12-14T04:36:08;11.93;;;6.55;;
62202;SDS011;48199;49.138;7.414;2023-12-14T04:38:34;8.93;;;5.93;;
62202;SDS011;48199;49.138;7.414;2023-12-14T04:40:59;10.18;;;6.85;;
62202;SDS011;48199;49.138;7.414;2023-12-14T04:43:24;9.87;;;6.00;;
62202;SDS011;48199;49.138;7.414;2023-12-14T04:45:49;11.73;;;6.50;;
62202;SDS011;48199;49.138;7.414;2023-12-14T04:48:14;10.50;;;6.70;;
62202;SDS011;48199;49.138;7.414;2023-12-14T04:50:40;10.70;;;6.30;;
62202;SDS011;48199;49.138;7.414;2023-12-14T04:53:05;11.87;;;6.33;;
62202;SDS011;48199;49.138;7.414;2023-12-14T04:55:30;11.27;;;6.17;;
62202;SDS011;48199;49.138;7.414;2023-12-14T04:57:55;8.77;;;6.37;;
62202;SDS011;48199;49.138;7.414;2023-12-14T05:00:21;9.10;;;6.17;;
62202;SDS011;48199;49.138;7.414;2023-12-14T05:02:46;9.32;;;6.13;;
62202;SDS011;48199;49.138;7.414;2023-12-14T05:05:13;10.35;;;6.47;;
62202;SDS011;48199;49.138;7.414;2023-12-14T05:07:38;10.07;;;6.90;;
62202;SDS011;48199;49.138;7.414;2023-12-14T05:10:03;9.90;;;6.87;;
62202;SDS011;48199;49.138;7.414;2023-12-14T05:12:29;10.85;;;6.45;;
62202;SDS011;48199;49.138;7.414;2023-12-14T05:14:56;9.88;;;6.85;;
62202;SDS011;48199;49.138;7.414;2023-12-14T05:17:21;10.82;;;6.55;;
62202;SDS011;48199;49.138;7.414;2023-12-14T05:19:47;9.27;;;6.33;;
62202;SDS011;48199;49.138;7.414;2023-12-14T05:22:12;7.53;;;5.57;;
62202;SDS011;48199;49.138;7.414;2023-12-14T05:24:37;10.43;;;7.03;;
62202;SDS011;48199;49.138;7.414;2023-12-14T05:27:03;8.47;;;6.30;;
62202;SDS011;48199;49.138;7.414;2023-12-14T05:29:28;9.95;;;6.47;;
62202;SDS011;48199;49.138;7.414;2023-12-14T05:31:53;11.68;;;6.85;;
62202;SDS011;48199;49.138;7.414;2023-12-14T05:34:18;10.45;;;6.85;;
62202;SDS011;48199;49.138;7.414;2023-12-14T05:36:44;11.35;;;7.18;;
62202;SDS011;48199;49.138;7.414;2023-12-14T05:39:09;9.93;;;6.78;;
62202;SDS011;48199;49.138;7.414;2023-12-14T05:41:39;11.20;;;8.10;;
62202;SDS011;48199;49.138;7.414;2023-12-14T05:44:04;12.18;;;7.60;;
62202;SDS011;48199;49.138;7.414;2023-12-14T05:46:29;11.63;;;7.33;;
62202;SDS011;48199;49.138;7.414;2023-12-14T05:48:54;11.33;;;7.03;;
62202;SDS011;48199;49.138;7.414;2023-12-14T05:51:29;11.77;;;7.83;;
62202;SDS011;48199;49.138;7.414;2023-12-14T05:53:55;11.35;;;7.30;;
62202;SDS011;48199;49.138;7.414;2023-12-14T05:56:20;14.02;;;7.82;;
62202;SDS011;48199;49.138;7.414;2023-12-14T05:58:45;11.07;;;7.20;;
62202;SDS011;48199;49.138;7.414;2023-12-14T06:01:10;11.67;;;7.17;;
62202;SDS011;48199;49.138;7.414;2023-12-14T06:03:35;11.73;;;7.47;;
62202;SDS011;48199;49.138;7.414;2023-12-14T06:06:01;11.90;;;6.27;;
62202;SDS011;48199;49.138;7.414;2023-12-14T06:08:26;10.25;;;6.25;;
62202;SDS011;48199;49.138;7.414;2023-12-14T06:10:51;12.23;;;7.53;;
62202;SDS011;48199;49.138;7.414;2023-12-14T06:13:16;10.13;;;7.50;;
62202;SDS011;48199;49.138;7.414;2023-12-14T06:15:42;11.33;;;7.47;;
62202;SDS011;48199;49.138;7.414;2023-12-14T06:18:07;11.93;;;7.35;;
62202;SDS011;48199;49.138;7.414;2023-12-14T06:20:32;12.47;;;8.17;;
62202;SDS011;48199;49.138;7.414;2023-12-14T06:22:57;13.50;;;6.77;;
62202;SDS011;48199;49.138;7.414;2023-12-14T06:25:22;13.40;;;8.00;;
62202;SDS011;48199;49.138;7.414;2023-12-14T06:27:48;12.73;;;7.67;;
62202;SDS011;48199;49.138;7.414;2023-12-14T06:30:14;10.45;;;6.38;;
62202;SDS011;48199;49.138;7.414;2023-12-14T06:32:39;11.15;;;7.05;;
62202;SDS011;48199;49.138;7.414;2023-12-14T06:35:05;12.25;;;7.32;;
62202;SDS011;48199;49.138;7.414;2023-12-14T06:37:30;13.27;;;7.70;;
62202;SDS011;48199;49.138;7.414;2023-12-14T06:39:55;13.40;;;7.80;;
62202;SDS011;48199;49.138;7.414;2023-12-14T06:42:20;11.48;;;7.15;;
62202;SDS011;48199;49.138;7.414;2023-12-14T06:44:46;10.38;;;7.22;;
62202;SDS011;48199;49.138;7.414;2023-12-14T06:47:11;12.68;;;7.85;;
62202;SDS011;48199;49.138;7.414;2023-12-14T06:49:38;15.90;;;8.27;;
62202;SDS011;48199;49.138;7.414;2023-12-14T06:52:05;14.38;;;7.97;;
62202;SDS011;48199;49.138;7.414;2023-12-14T06:54:30;13.30;;;7.57;;
62202;SDS011;48199;49.138;7.414;2023-12-14T06:56:55;13.87;;;8.47;;
62202;SDS011;48199;49.138;7.414;2023-12-14T06:59:20;13.00;;;8.43;;
62202;SDS011;48199;49.138;7.414;2023-12-14T07:01:46;11.48;;;8.02;;
62202;SDS011;48199;49.138;7.414;2023-12-14T07:04:11;11.13;;;7.95;;
62202;SDS011;48199;49.138;7.414;2023-12-14T07:06:36;11.90;;;7.60;;
62202;SDS011;48199;49.138;7.414;2023-12-14T07:09:01;12.02;;;7.75;;
62202;SDS011;48199;49.138;7.414;2023-12-14T07:11:27;14.75;;;7.75;;
62202;SDS011;48199;49.138;7.414;2023-12-14T07:13:52;13.60;;;8.37;;
62202;SDS011;48199;49.138;7.414;2023-12-14T07:16:17;11.50;;;7.25;;
62202;SDS011;48199;49.138;7.414;2023-12-14T07:18:43;11.80;;;8.13;;
62202;SDS011;48199;49.138;7.414;2023-12-14T07:21:08;14.07;;;8.52;;
62202;SDS011;48199;49.138;7.414;2023-12-14T07:23:34;12.40;;;8.48;;
62202;SDS011;48199;49.138;7.414;2023-12-14T07:25:59;12.80;;;8.50;;
62202;SDS011;48199;49.138;7.414;2023-12-14T07:28:24;10.87;;;7.83;;
62202;SDS011;48199;49.138;7.414;2023-12-14T07:30:50;15.90;;;9.98;;
62202;SDS011;48199;49.138;7.414;2023-12-14T07:33:15;25.02;;;12.13;;
62202;SDS011;48199;49.138;7.414;2023-12-14T07:35:41;18.55;;;10.57;;
62202;SDS011;48199;49.138;7.414;2023-12-14T07:38:06;18.35;;;11.00;;
62202;SDS011;48199;49.138;7.414;2023-12-14T07:40:31;17.02;;;8.68;;
62202;SDS011;48199;49.138;7.414;2023-12-14T07:42:57;17.58;;;10.68;;
62202;SDS011;48199;49.138;7.414;2023-12-14T07:45:22;18.13;;;9.48;;
62202;SDS011;48199;49.138;7.414;2023-12-14T07:47:47;14.70;;;8.83;;
62202;SDS011;48199;49.138;7.414;2023-12-14T07:50:13;14.90;;;9.50;;
62202;SDS011;48199;49.138;7.414;2023-12-14T07:52:38;16.75;;;8.98;;
62202;SDS011;48199;49.138;7.414;2023-12-14T07:55:04;14.38;;;9.32;;
62202;SDS011;48199;49.138;7.414;2023-12-14T07:57:30;14.07;;;9.27;;
62202;SDS011;48199;49.138;7.414;2023-12-14T07:59:55;16.23;;;9.03;;
62202;SDS011;48199;49.138;7.414;2023-12-14T08:02:20;14.77;;;9.33;;
62202;SDS011;48199;49.138;7.414;2023-12-14T08:04:45;13.57;;;8.47;;
62202;SDS011;48199;49.138;7.414;2023-12-14T08:07:11;13.97;;;9.13;;
62202;SDS011;48199;49.138;7.414;2023-12-14T08:09:36;14.32;;;9.10;;
62202;SDS011;48199;49.138;7.414;2023-12-14T08:12:01;15.07;;;10.00;;
62202;SDS011;48199;49.138;7.414;2023-12-14T08:14:26;15.32;;;8.98;;
62202;SDS011;48199;49.138;7.414;2023-12-14T08:16:52;15.13;;;9.40;;
62202;SDS011;48199;49.138;7.414;2023-12-14T08:19:17;16.60;;;9.35;;
62202;SDS011;48199;49.138;7.414;2023-12-14T08:21:42;16.25;;;9.27;;
62202;SDS011;48199;49.138;7.414;2023-12-14T08:24:08;15.03;;;9.73;;
62202;SDS011;48199;49.138;7.414;2023-12-14T08:26:33;14.53;;;9.07;;
62202;SDS011;48199;49.138;7.414;2023-12-14T08:28:58;14.00;;;9.50;;
62202;SDS011;48199;49.138;7.414;2023-12-14T08:31:24;15.48;;;9.48;;
62202;SDS011;48199;49.138;7.414;2023-12-14T08:33:49;13.63;;;8.90;;
62202;SDS011;48199;49.138;7.414;2023-12-14T08:36:15;13.65;;;9.57;;
62202;SDS011;48199;49.138;7.414;2023-12-14T08:38:40;13.18;;;8.18;;
62202;SDS011;48199;49.138;7.414;2023-12-14T08:41:06;15.27;;;8.73;;
62202;SDS011;48199;49.138;7.414;2023-12-14T08:43:31;13.88;;;7.72;;
62202;SDS011;48199;49.138;7.414;2023-12-14T08:45:56;17.23;;;9.03;;
62202;SDS011;48199;49.138;7.414;2023-12-14T08:48:21;14.63;;;8.32;;
62202;SDS011;48199;49.138;7.414;2023-12-14T08:50:47;14.47;;;8.30;;
62202;SDS011;48199;49.138;7.414;2023-12-14T08:53:12;11.50;;;7.33;;
62202;SDS011;48199;49.138;7.414;2023-12-14T08:55:37;15.52;;;9.27;;
62202;SDS011;48199;49.138;7.414;2023-12-14T08:58:02;11.73;;;7.78;;
62202;SDS011;48199;49.138;7.414;2023-12-14T09:00:28;12.53;;;7.77;;
62202;SDS011;48199;49.138;7.414;2023-12-14T09:02:53;16.40;;;9.10;;
62202;SDS011;48199;49.138;7.414;2023-12-14T09:05:18;11.53;;;7.60;;
62202;SDS011;48199;49.138;7.414;2023-12-14T09:07:45;16.75;;;8.60;;
62202;SDS011;48199;49.138;7.414;2023-12-14T09:10:11;12.77;;;8.37;;
62202;SDS011;48199;49.138;7.414;2023-12-14T09:12:36;15.75;;;8.13;;
62202;SDS011;48199;49.138;7.414;2023-12-14T09:15:01;12.45;;;8.10;;
62202;SDS011;48199;49.138;7.414;2023-12-14T09:17:27;12.75;;;8.15;;
62202;SDS011;48199;49.138;7.414;2023-12-14T09:19:58;14.95;;;8.85;;
62202;SDS011;48199;49.138;7.414;2023-12-14T09:22:23;17.02;;;9.10;;
62202;SDS011;48199;49.138;7.414;2023-12-14T09:24:48;13.37;;;7.27;;
62202;SDS011;48199;49.138;7.414;2023-12-14T09:27:13;12.65;;;7.60;;
62202;SDS011;48199;49.138;7.414;2023-12-14T09:29:38;13.10;;;8.30;;
62202;SDS011;48199;49.138;7.414;2023-12-14T09:32:04;13.57;;;7.93;;
62202;SDS011;48199;49.138;7.414;2023-12-14T09:34:29;14.95;;;8.38;;
62202;SDS011;48199;49.138;7.414;2023-12-14T09:36:54;14.95;;;7.80;;
62202;SDS011;48199;49.138;7.414;2023-12-14T09:39:20;15.95;;;8.82;;
62202;SDS011;48199;49.138;7.414;2023-12-14T09:41:46;12.95;;;7.80;;
62202;SDS011;48199;49.138;7.414;2023-12-14T09:44:12;11.73;;;8.05;;
62202;SDS011;48199;49.138;7.414;2023-12-14T09:46:38;14.67;;;7.57;;
62202;SDS011;48199;49.138;7.414;2023-12-14T09:49:03;15.68;;;8.23;;
62202;SDS011;48199;49.138;7.414;2023-12-14T09:51:29;10.93;;;7.72;;
62202;SDS011;48199;49.138;7.414;2023-12-14T09:53:55;14.65;;;9.35;;
62202;SDS011;48199;49.138;7.414;2023-12-14T09:56:26;12.85;;;8.70;;
62202;SDS011;48199;49.138;7.414;2023-12-14T09:58:52;17.00;;;8.45;;
62202;SDS011;48199;49.138;7.414;2023-12-14T10:01:20;12.85;;;8.75;;
62202;SDS011;48199;49.138;7.414;2023-12-14T10:03:46;13.80;;;8.60;;
62202;SDS011;48199;49.138;7.414;2023-12-14T10:06:11;13.73;;;8.03;;
62202;SDS011;48199;49.138;7.414;2023-12-14T10:08:37;16.63;;;9.00;;
62202;SDS011;48199;49.138;7.414;2023-12-14T10:11:03;13.82;;;9.02;;
62202;SDS011;48199;49.138;7.414;2023-12-14T10:13:39;10.57;;;7.45;;
62202;SDS011;48199;49.138;7.414;2023-12-14T10:16:04;11.70;;;7.65;;
62202;SDS011;48199;49.138;7.414;2023-12-14T10:18:31;16.25;;;7.85;;
62202;SDS011;48199;49.138;7.414;2023-12-14T10:20:56;19.23;;;7.85;;
62202;SDS011;48199;49.138;7.414;2023-12-14T10:23:22;14.13;;;7.53;;
62202;SDS011;48199;49.138;7.414;2023-12-14T10:25:47;14.38;;;7.70;;
62202;SDS011;48199;49.138;7.414;2023-12-14T10:28:12;12.40;;;8.40;;
62202;SDS011;48199;49.138;7.414;2023-12-14T10:30:41;15.95;;;7.88;;
62202;SDS011;48199;49.138;7.414;2023-12-14T10:33:06;11.13;;;7.35;;
62202;SDS011;48199;49.138;7.414;2023-12-14T10:35:31;12.32;;;6.95;;
62202;SDS011;48199;49.138;7.414;2023-12-14T10:37:58;14.93;;;8.33;;
62202;SDS011;48199;49.138;7.414;2023-12-14T10:40:25;11.77;;;6.30;;
62202;SDS011;48199;49.138;7.414;2023-12-14T10:42:51;9.52;;;6.55;;
62202;SDS011;48199;49.138;7.414;2023-12-14T10:45:16;11.45;;;7.22;;
62202;SDS011;48199;49.138;7.414;2023-12-14T10:47:43;12.63;;;6.95;;
62202;SDS011;48199;49.138;7.414;2023-12-14T10:50:10;11.43;;;7.35;;
62202;SDS011;48199;49.138;7.414;2023-12-14T10:52:36;9.13;;;6.25;;
62202;SDS011;48199;49.138;7.414;2023-12-14T10:55:04;12.88;;;5.97;;
62202;SDS011;48199;49.138;7.414;2023-12-14T10:57:31;10.80;;;6.78;;
62202;SDS011;48199;49.138;7.414;2023-12-14T11:00:00;13.93;;;6.95;;
62202;SDS011;48199;49.138;7.414;2023-12-14T11:02:25;9.57;;;6.50;;
62202;SDS011;48199;49.138;7.414;2023-12-14T11:04:57;10.53;;;6.43;;
62202;SDS011;48199;49.138;7.414;2023-12-14T11:10:38;10.50;;;6.65;;
62202;SDS011;48199;49.138;7.414;2023-12-14T11:13:08;11.98;;;6.00;;
62202;SDS011;48199;49.138;7.414;2023-12-14T11:15:37;14.55;;;7.43;;
62202;SDS011;48199;49.138;7.414;2023-12-14T11:23:09;13.07;;;6.43;;
62202;SDS011;48199;49.138;7.414;2023-12-14T11:25:35;13.68;;;6.70;;
62202;SDS011;48199;49.138;7.414;2023-12-14T11:28:03;12.20;;;6.45;;
62202;SDS011;48199;49.138;7.414;2023-12-14T11:30:28;13.23;;;6.72;;
62202;SDS011;48199;49.138;7.414;2023-12-14T11:32:54;12.75;;;7.32;;
62202;SDS011;48199;49.138;7.414;2023-12-14T11:35:19;11.10;;;6.90;;
62202;SDS011;48199;49.138;7.414;2023-12-14T11:37:44;10.10;;;6.73;;
62202;SDS011;48199;49.138;7.414;2023-12-14T11:40:09;9.87;;;6.27;;
62202;SDS011;48199;49.138;7.414;2023-12-14T11:42:35;9.25;;;6.40;;
62202;SDS011;48199;49.138;7.414;2023-12-14T11:45:00;12.50;;;7.40;;
62202;SDS011;48199;49.138;7.414;2023-12-14T11:47:26;15.50;;;7.73;;
62202;SDS011;48199;49.138;7.414;2023-12-14T11:49:51;10.90;;;7.50;;
62202;SDS011;48199;49.138;7.414;2023-12-14T11:52:17;9.43;;;6.40;;
62202;SDS011;48199;49.138;7.414;2023-12-14T11:54:42;9.88;;;5.88;;
62202;SDS011;48199;49.138;7.414;2023-12-14T11:57:07;9.00;;;5.90;;
62202;SDS011;48199;49.138;7.414;2023-12-14T11:59:34;10.50;;;5.72;;
62202;SDS011;48199;49.138;7.414;2023-12-14T12:02:00;11.40;;;6.60;;
62202;SDS011;48199;49.138;7.414;2023-12-14T12:04:26;13.50;;;6.78;;
62202;SDS011;48199;49.138;7.414;2023-12-14T12:07:05;9.65;;;5.85;;
62202;SDS011;48199;49.138;7.414;2023-12-14T12:09:36;10.23;;;6.60;;
62202;SDS011;48199;49.138;7.414;2023-12-14T12:12:01;10.60;;;6.28;;
62202;SDS011;48199;49.138;7.414;2023-12-14T12:14:27;8.43;;;5.47;;
62202;SDS011;48199;49.138;7.414;2023-12-14T12:16:52;8.98;;;5.38;;
62202;SDS011;48199;49.138;7.414;2023-12-14T12:19:18;9.93;;;5.57;;
62202;SDS011;48199;49.138;7.414;2023-12-14T12:21:43;7.30;;;4.70;;
62202;SDS011;48199;49.138;7.414;2023-12-14T12:24:08;9.63;;;5.33;;
62202;SDS011;48199;49.138;7.414;2023-12-14T12:26:33;9.33;;;5.27;;
62202;SDS011;48199;49.138;7.414;2023-12-14T12:28:59;8.70;;;5.27;;
62202;SDS011;48199;49.138;7.414;2023-12-14T12:31:24;7.20;;;4.50;;
62202;SDS011;48199;49.138;7.414;2023-12-14T12:33:49;10.20;;;4.77;;
62202;SDS011;48199;49.138;7.414;2023-12-14T12:36:14;9.90;;;4.90;;
62202;SDS011;48199;49.138;7.414;2023-12-14T12:38:40;7.97;;;5.07;;
62202;SDS011;48199;49.138;7.414;2023-12-14T12:41:05;10.85;;;4.97;;
62202;SDS011;48199;49.138;7.414;2023-12-14T12:43:30;9.15;;;5.45;;
62202;SDS011;48199;49.138;7.414;2023-12-14T12:45:56;8.27;;;4.63;;
62202;SDS011;48199;49.138;7.414;2023-12-14T12:48:23;11.18;;;4.97;;
62202;SDS011;48199;49.138;7.414;2023-12-14T12:50:48;7.90;;;4.57;;
62202;SDS011;48199;49.138;7.414;2023-12-14T12:53:13;7.53;;;4.57;;
62202;SDS011;48199;49.138;7.414;2023-12-14T12:55:39;7.27;;;4.50;;
62202;SDS011;48199;49.138;7.414;2023-12-14T12:58:04;8.43;;;4.60;;
62202;SDS011;48199;49.138;7.414;2023-12-14T13:00:31;6.55;;;4.05;;
62202;SDS011;48199;49.138;7.414;2023-12-14T13:03:00;8.32;;;4.05;;
62202;SDS011;48199;49.138;7.414;2023-12-14T13:05:27;7.15;;;4.43;;
62202;SDS011;48199;49.138;7.414;2023-12-14T13:07:52;9.20;;;4.43;;
62202;SDS011;48199;49.138;7.414;2023-12-14T13:10:19;6.82;;;4.07;;
62202;SDS011;48199;49.138;7.414;2023-12-14T13:12:47;9.35;;;3.35;;
62202;SDS011;48199;49.138;7.414;2023-12-14T13:15:12;5.87;;;3.67;;
62202;SDS011;48199;49.138;7.414;2023-12-14T13:17:37;6.95;;;4.07;;
62202;SDS011;48199;49.138;7.414;2023-12-14T13:20:03;6.95;;;3.97;;
62202;SDS011;48199;49.138;7.414;2023-12-14T13:22:31;5.85;;;3.55;;
62202;SDS011;48199;49.138;7.414;2023-12-14T13:24:56;7.43;;;3.72;;
62202;SDS011;48199;49.138;7.414;2023-12-14T13:27:21;11.20;;;4.50;;
62202;SDS011;48199;49.138;7.414;2023-12-14T13:29:48;7.88;;;3.80;;
62202;SDS011;48199;49.138;7.414;2023-12-14T13:32:14;6.73;;;3.60;;
62202;SDS011;48199;49.138;7.414;2023-12-14T13:34:39;9.47;;;4.17;;
62202;SDS011;48199;49.138;7.414;2023-12-14T13:37:04;5.07;;;2.88;;
62202;SDS011;48199;49.138;7.414;2023-12-14T13:39:31;4.05;;;2.80;;
62202;SDS011;48199;49.138;7.414;2023-12-14T13:41:56;5.22;;;2.85;;
62202;SDS011;48199;49.138;7.414;2023-12-14T13:44:21;4.13;;;2.70;;
62202;SDS011;48199;49.138;7.414;2023-12-14T13:46:46;5.63;;;2.63;;
62202;SDS011;48199;49.138;7.414;2023-12-14T13:49:12;4.07;;;2.40;;
62202;SDS011;48199;49.138;7.414;2023-12-14T13:51:37;5.47;;;2.80;;
62202;SDS011;48199;49.138;7.414;2023-12-14T13:54:02;4.30;;;2.03;;
62202;SDS011;48199;49.138;7.414;2023-12-14T13:56:27;4.70;;;2.80;;
62202;SDS011;48199;49.138;7.414;2023-12-14T13:58:53;3.87;;;2.00;;
62202;SDS011;48199;49.138;7.414;2023-12-14T14:01:18;4.17;;;2.40;;
62202;SDS011;48199;49.138;7.414;2023-12-14T14:03:44;8.30;;;2.80;;
62202;SDS011;48199;49.138;7.414;2023-12-14T14:06:11;4.47;;;2.33;;
62202;SDS011;48199;49.138;7.414;2023-12-14T14:08:36;4.50;;;2.25;;
62202;SDS011;48199;49.138;7.414;2023-12-14T14:11:02;5.37;;;2.00;;
62202;SDS011;48199;49.138;7.414;2023-12-14T14:13:28;4.03;;;1.85;;
62202;SDS011;48199;49.138;7.414;2023-12-14T14:15:53;3.45;;;2.20;;
62202;SDS011;48199;49.138;7.414;2023-12-14T14:18:18;5.28;;;2.90;;
62202;SDS011;48199;49.138;7.414;2023-12-14T14:20:44;5.40;;;3.00;;
62202;SDS011;48199;49.138;7.414;2023-12-14T14:23:09;3.33;;;2.03;;
62202;SDS011;48199;49.138;7.414;2023-12-14T14:25:34;3.60;;;1.80;;
62202;SDS011;48199;49.138;7.414;2023-12-14T14:28:00;5.78;;;2.88;;
62202;SDS011;48199;49.138;7.414;2023-12-14T14:30:25;3.30;;;2.10;;
62202;SDS011;48199;49.138;7.414;2023-12-14T14:32:51;3.70;;;2.30;;
62202;SDS011;48199;49.138;7.414;2023-12-14T14:35:16;3.65;;;1.88;;
62202;SDS011;48199;49.138;7.414;2023-12-14T14:37:41;2.78;;;1.75;;
62202;SDS011;48199;49.138;7.414;2023-12-14T14:40:10;4.75;;;1.75;;
62202;SDS011;48199;49.138;7.414;2023-12-14T14:42:35;4.70;;;2.15;;